KPWC

Pine River Regional Airport

Pine River, Minnesota, USA
METAR KPWC 201235Z AUTO 00000KT 10SM CLR M04/M06 A2980 RMK AO2
Observed Flight Rules
Jan-20 @ 12:35 UTC (30 minutes ago) Visual Flight Rules
Wind Visibility Clouds
Calm 10 miles
  • Clear skies
Temperatures Readings
Current -4°C / 25°F
Dewpoint -6°C / 21°F
Humidity 86%
Altimeter 29.8" Hg
Pressure 1009 hPa
Elevation 395
METAR KPWC 201235Z AUTO 00000KT 10SM CLR M04/M06 A2980 RMK AO2
Observed Flight Rules
Jan-20 @ 12:35 UTC
(30 minutes ago)
VFR
Wind Visibility
Calm 10 miles
Clouds
  • Clear skies
Temperature Dewpoint
-4°C / 25°F -6°C / 21°F
Humidity Altimeter Pressure
86% 29.8" Hg 1009 hPa